Time;durP1;ratioP1;P1;durP2;ratioP2;P2;SDS_P1;SDS_P2;PMS_P1;PMS_P2;Temp;Humidity;BMP_temperature;BMP_pressure;BME280_temperature;BME280_humidity;BME280_pressure;Samples;Min_cycle;Max_cycle;Signal;HPM_P1;HPM_P2
2023/09/19 00:00:49;;;;;;;1.73;0.73;;;;;;;26.04;100.00;95807.63;5088713;28;20030;-82
2023/09/19 00:03:22;;;;;;;3.88;0.90;;;;;;;26.35;100.00;95808.44;5074827;28;20055;-82
2023/09/19 00:05:50;;;;;;;;;;;;;;;26.28;100.00;95816.81;5072694;28;20111;-82
2023/09/19 00:08:22;;;;;;;2.28;1.30;;;;;;;26.51;100.00;95812.00;5058069;28;19961;-82
2023/09/19 00:10:48;;;;;;;2.45;1.10;;;;;;;26.08;100.00;95809.50;5079578;28;20036;-82
2023/09/19 00:13:18;;;;;;;5.70;1.95;;;;;;;26.00;100.00;95817.34;5056922;28;20111;-82
2023/09/19 00:15:52;;;;;;;3.47;0.98;;;;;;;26.40;100.00;95827.34;5091366;28;20034;-82
2023/09/19 00:18:24;;;;;;;2.88;0.98;;;;;;;25.80;100.00;95818.09;5064279;28;20021;-82
2023/09/19 00:20:51;;;;;;;4.07;1.42;;;;;;;26.09;100.00;95816.53;5068287;28;20070;-82
2023/09/19 00:23:19;;;;;;;2.63;0.88;;;;;;;25.98;100.00;95812.19;5047695;28;20029;-82
2023/09/19 00:25:45;;;;;;;2.90;0.98;;;;;;;26.53;100.00;95810.66;5050381;28;20460;-81
2023/09/19 00:28:14;;;;;;;2.78;0.80;;;;;;;26.03;100.00;95820.28;5050326;28;20035;-82
2023/09/19 00:30:43;;;;;;;4.07;1.20;;;;;;;26.33;100.00;95814.13;5071690;28;20439;-82
2023/09/19 00:33:11;;;;;;;2.35;0.70;;;;;;;26.73;100.00;95814.41;5064072;28;20035;-82
2023/09/19 00:35:37;;;;;;;3.10;1.10;;;;;;;26.49;100.00;95814.97;5068432;28;20445;-83
2023/09/19 00:38:04;;;;;;;4.35;1.50;;;;;;;26.73;100.00;95812.53;5070487;28;20063;-82
2023/09/19 00:40:30;;;;;;;4.57;1.13;;;;;;;26.15;100.00;95813.84;5050599;28;20058;-82
2023/09/19 00:43:00;;;;;;;3.25;1.40;;;;;;;26.28;100.00;95814.09;5052981;28;20025;-82
2023/09/19 00:45:26;;;;;;;2.92;1.30;;;;;;;26.03;100.00;95814.91;5051482;28;20040;-82
2023/09/19 00:47:52;;;;;;;5.47;1.33;;;;;;;26.21;100.00;95816.25;5049699;28;20112;-82
2023/09/19 00:50:21;;;;;;;4.60;1.30;;;;;;;26.00;100.00;95817.34;5064746;28;20024;-82
2023/09/19 00:52:50;;;;;;;2.35;1.15;;;;;;;26.65;100.00;95812.25;5054027;28;20029;-82
2023/09/19 00:55:19;;;;;;;3.40;1.30;;;;;;;26.58;100.00;95809.03;5070154;28;20652;-82
2023/09/19 00:57:47;;;;;;;2.28;0.93;;;;;;;26.98;100.00;95810.84;5065310;28;20039;-82
2023/09/19 01:00:18;;;;;;;4.22;1.27;;;;;;;26.12;100.00;95820.56;5058545;28;20035;-82
2023/09/19 01:02:52;;;;;;;2.65;1.10;;;;;;;25.99;100.00;95823.78;5049618;28;20098;-81
2023/09/19 01:05:18;;;;;;;2.97;1.15;;;;;;;25.29;100.00;95834.03;5057422;28;20029;-82
2023/09/19 01:07:45;;;;;;;2.47;0.90;;;;;;;25.68;100.00;95830.94;5051224;28;20032;-82
2023/09/19 01:10:14;;;;;;;4.25;1.25;;;;;;;24.89;100.00;95835.41;5058639;28;20051;-82
2023/09/19 01:13:24;;;;;;;2.65;1.00;;;;;;;25.27;100.00;95841.56;5057524;28;20040;-82
2023/09/19 01:16:15;;;;;;;2.40;0.90;;;;;;;25.58;100.00;95835.22;5053878;28;20020;-82
2023/09/19 01:19:00;;;;;;;2.90;1.00;;;;;;;25.29;100.00;95834.84;5053291;28;20048;-82
2023/09/19 01:21:42;;;;;;;3.20;1.70;;;;;;;25.39;100.00;95826.81;5048327;28;20074;-82
2023/09/19 01:24:34;;;;;;;3.03;0.82;;;;;;;25.15;100.00;95833.69;5051812;28;20035;-82
2023/09/19 01:27:39;;;;;;;2.13;0.80;;;;;;;25.31;100.00;95826.50;5048726;28;20141;-81
2023/09/19 01:30:30;;;;;;;2.67;0.85;;;;;;;24.53;100.00;95832.47;5046098;28;20486;-82
2023/09/19 01:32:57;;;;;;;3.00;1.00;;;;;;;24.97;100.00;95832.22;5059439;28;20102;-82
2023/09/19 01:35:23;;;;;;;2.55;0.82;;;;;;;25.00;100.00;95829.00;5071519;28;20051;-82
2023/09/19 01:37:53;;;;;;;1.80;0.90;;;;;;;25.26;100.00;95834.56;5054763;28;20043;-82
2023/09/19 01:40:22;;;;;;;2.28;1.00;;;;;;;24.83;100.00;95839.13;5068223;28;20077;-81
2023/09/19 01:43:36;;;;;;;4.53;0.85;;;;;;;24.94;100.00;95835.41;5059139;28;20026;-82
2023/09/19 01:46:14;;;;;;;1.83;1.13;;;;;;;24.69;100.00;95844.94;5058893;28;20097;-82
2023/09/19 01:48:57;;;;;;;1.58;0.80;;;;;;;24.16;100.00;95843.94;5066287;28;20131;-82
2023/09/19 01:51:53;;;;;;;1.85;0.95;;;;;;;24.35;100.00;95848.97;5065859;28;20039;-83
2023/09/19 01:54:32;;;;;;;2.83;0.73;;;;;;;24.41;100.00;95854.16;5061015;28;20119;-81
2023/09/19 01:57:33;;;;;;;1.00;0.63;;;;;;;24.87;100.00;95850.97;5048872;28;20036;-82
2023/09/19 02:00:21;;;;;;;3.08;0.77;;;;;;;24.69;100.00;95852.22;5063438;28;20024;-82
2023/09/19 02:03:01;;;;;;;1.33;0.63;;;;;;;24.88;100.00;95852.59;5052444;28;20036;-82
2023/09/19 02:05:30;;;;;;;2.70;0.90;;;;;;;24.76;100.00;95852.00;5057252;28;20032;-82
2023/09/19 02:07:58;;;;;;;1.88;0.88;;;;;;;24.66;100.00;95864.28;5061750;28;20036;-82
2023/09/19 02:10:27;;;;;;;1.25;0.80;;;;;;;24.68;100.00;95862.16;5064588;28;20121;-82
2023/09/19 02:12:56;;;;;;;1.88;0.60;;;;;;;24.55;100.00;95861.78;5052556;28;20024;-82
2023/09/19 02:15:49;;;;;;;2.15;0.73;;;;;;;24.66;100.00;95866.97;5054237;28;20017;-85
2023/09/19 02:18:19;;;;;;;5.13;0.90;;;;;;;24.40;100.00;95868.63;5066510;28;20032;-82
2023/09/19 02:20:46;;;;;;;2.08;0.90;;;;;;;24.75;100.00;95867.31;5048539;28;20028;-82
2023/09/19 02:23:15;;;;;;;1.23;0.70;;;;;;;23.86;100.00;95865.94;5050616;28;20032;-82
2023/09/19 02:26:02;;;;;;;1.17;0.80;;;;;;;24.35;100.00;95873.94;5050486;28;20116;-82
2023/09/19 02:28:31;;;;;;;2.58;0.85;;;;;;;24.50;100.00;95875.16;5049849;28;20135;-82
2023/09/19 02:31:12;;;;;;;1.30;0.52;;;;;;;23.99;100.00;95876.28;5067603;28;20099;-82
2023/09/19 02:33:43;;;;;;;3.30;0.85;;;;;;;24.25;100.00;95873.06;5060278;28;20032;-82
2023/09/19 02:36:23;;;;;;;8.45;1.25;;;;;;;24.80;100.00;95875.41;5066102;28;20035;-82
2023/09/19 02:38:50;;;;;;;2.10;0.80;;;;;;;24.60;100.00;95886.00;5049074;28;20040;-82
2023/09/19 02:41:16;;;;;;;4.03;0.85;;;;;;;24.07;100.00;95883.06;5069563;28;22144;-82
2023/09/19 02:43:44;;;;;;;2.15;0.68;;;;;;;24.19;100.00;95886.41;5078137;28;20049;-82
2023/09/19 02:46:27;;;;;;;3.15;1.08;;;;;;;24.59;100.00;95885.19;5073512;28;20383;-82
2023/09/19 02:49:04;;;;;;;2.28;1.15;;;;;;;24.62;100.00;95892.75;5070532;28;20028;-82
2023/09/19 02:51:31;;;;;;;3.42;0.90;;;;;;;24.83;100.00;95892.91;5056920;28;20032;-82
2023/09/19 02:53:57;;;;;;;1.55;0.63;;;;;;;24.35;100.00;95897.31;5074924;28;20100;-82
2023/09/19 02:56:24;;;;;;;2.38;0.88;;;;;;;24.36;100.00;95898.94;5072535;28;20123;-82
2023/09/19 02:58:55;;;;;;;3.97;0.90;;;;;;;24.66;100.00;95891.16;5055659;28;20070;-82
2023/09/19 03:07:05;;;;;;;2.38;0.80;;;;;;;24.80;100.00;95901.50;5051486;28;20036;-82
2023/09/19 03:09:40;;;;;;;2.72;1.13;;;;;;;24.11;100.00;95908.38;5073721;28;20043;-83
2023/09/19 03:12:06;;;;;;;2.00;1.08;;;;;;;24.90;100.00;95901.56;5051753;28;20037;-81
2023/09/19 03:14:42;;;;;;;2.30;0.95;;;;;;;24.83;100.00;95909.06;5067846;28;20024;-82
2023/09/19 03:17:09;;;;;;;3.63;1.10;;;;;;;24.55;100.00;95910.19;5054203;28;20191;-81
2023/09/19 03:19:40;;;;;;;1.33;0.93;;;;;;;24.78;100.00;95917.06;5059527;28;20044;-81
2023/09/19 03:22:09;;;;;;;2.97;1.10;;;;;;;24.89;100.00;95916.09;5068550;28;20040;-82
2023/09/19 03:24:47;;;;;;;2.65;1.05;;;;;;;25.15;100.00;95917.94;5056371;28;20048;-82
2023/09/19 03:27:39;;;;;;;1.75;0.77;;;;;;;24.63;100.00;95923.13;5051037;28;20403;-82
2023/09/19 03:30:17;;;;;;;2.58;0.90;;;;;;;24.72;100.00;95921.63;5055570;28;20025;-81
2023/09/19 03:32:49;;;;;;;1.90;0.95;;;;;;;25.14;100.00;95916.28;5058144;28;20036;-82
2023/09/19 03:35:25;;;;;;;5.63;0.90;;;;;;;24.80;100.00;95923.81;5069452;28;20079;-81
2023/09/19 03:37:52;;;;;;;4.72;1.10;;;;;;;24.12;100.00;95912.69;5050354;28;20037;-82
2023/09/19 03:40:25;;;;;;;2.28;0.75;;;;;;;24.19;100.00;95923.22;5062481;28;20059;-81
2023/09/19 03:43:00;;;;;;;1.55;0.80;;;;;;;23.95;100.00;95922.69;5054118;28;20040;-81
2023/09/19 03:45:28;;;;;;;2.85;1.00;;;;;;;23.95;100.00;95920.03;5060876;28;20508;-82
2023/09/19 03:48:12;;;;;;;1.63;0.82;;;;;;;24.31;100.00;95915.00;5059993;28;20032;-82
2023/09/19 03:50:39;;;;;;;2.53;1.10;;;;;;;24.52;100.00;95916.88;5045469;28;20422;-81
2023/09/19 03:53:07;;;;;;;2.50;0.82;;;;;;;24.28;100.00;95910.13;5052045;28;20052;-82
2023/09/19 03:55:38;;;;;;;2.83;1.00;;;;;;;24.17;100.00;95915.41;5052961;28;20021;-81
2023/09/19 03:58:14;;;;;;;3.28;1.00;;;;;;;24.38;100.00;95916.44;5064970;28;20390;-82
2023/09/19 04:00:54;;;;;;;2.17;0.80;;;;;;;24.34;100.00;95914.50;5060492;28;20032;-82
2023/09/19 04:03:21;;;;;;;2.45;1.15;;;;;;;24.24;100.00;95909.81;5070022;28;20028;-82
2023/09/19 04:05:50;;;;;;;3.13;1.10;;;;;;;24.33;100.00;95913.69;5054226;28;20379;-82
2023/09/19 04:08:19;;;;;;;4.20;1.15;;;;;;;24.17;100.00;95915.41;5065511;28;20067;-82
2023/09/19 04:10:48;;;;;;;4.68;1.13;;;;;;;24.21;100.00;95916.53;5059088;28;20028;-82
2023/09/19 04:13:18;;;;;;;4.75;1.10;;;;;;;24.41;100.00;95909.75;5055816;28;20036;-82
2023/09/19 04:15:50;;;;;;;1.17;0.88;;;;;;;24.69;100.00;95912.16;5054373;28;20643;-82
2023/09/19 04:18:20;;;;;;;3.70;1.33;;;;;;;24.55;100.00;95915.56;5051142;28;20506;-82
2023/09/19 04:21:02;;;;;;;2.58;0.90;;;;;;;24.82;100.00;95928.97;5052187;28;20025;-82
2023/09/19 04:23:32;;;;;;;2.22;1.00;;;;;;;24.16;100.00;95913.78;5072999;28;20020;-82
2023/09/19 04:26:01;;;;;;;1.83;1.05;;;;;;;24.60;100.00;95929.03;5058117;28;20037;-82
2023/09/19 04:28:30;;;;;;;2.17;1.02;;;;;;;24.46;100.00;95921.38;5057927;28;20482;-82
2023/09/19 04:30:59;;;;;;;3.72;1.10;;;;;;;23.97;100.00;95918.69;5061166;28;20021;-82
2023/09/19 04:33:27;;;;;;;3.40;1.13;;;;;;;24.48;100.00;95928.38;5055134;28;20027;-82
2023/09/19 04:36:07;;;;;;;5.65;1.67;;;;;;;24.04;100.00;95921.16;5071952;28;20021;-82
2023/09/19 04:38:38;;;;;;;3.88;1.23;;;;;;;24.07;100.00;95923.34;5040883;28;20111;-82
2023/09/19 04:41:04;;;;;;;3.40;1.02;;;;;;;24.66;100.00;95936.88;5075726;28;20040;-81
2023/09/19 04:43:33;;;;;;;4.97;1.30;;;;;;;24.09;100.00;95925.81;5046962;28;20376;-83
2023/09/19 04:46:00;;;;;;;2.80;1.30;;;;;;;24.14;100.00;95937.41;5081986;28;20397;-83
2023/09/19 04:48:34;;;;;;;2.88;1.08;;;;;;;25.07;100.00;95944.47;5051331;28;20145;-82
2023/09/19 04:51:15;;;;;;;2.50;1.00;;;;;;;24.59;100.00;95941.66;5064682;28;20029;-82
2023/09/19 04:53:41;;;;;;;1.85;1.00;;;;;;;24.58;100.00;95947.28;5043062;28;20035;-83
2023/09/19 04:56:13;;;;;;;2.50;1.00;;;;;;;25.21;100.00;95948.34;5052363;28;20036;-82
2023/09/19 04:58:47;;;;;;;2.70;1.10;;;;;;;24.17;100.00;95947.66;5054954;28;20024;-82
2023/09/19 05:01:15;;;;;;;4.22;1.10;;;;;;;24.81;100.00;95951.53;5054897;28;20383;-83
2023/09/19 05:03:53;;;;;;;3.70;1.13;;;;;;;25.02;100.00;95964.09;5048544;28;20104;-83
2023/09/19 05:06:22;;;;;;;5.43;1.20;;;;;;;24.55;100.00;95964.75;5064921;28;20036;-82
2023/09/19 05:08:53;;;;;;;4.47;1.20;;;;;;;24.43;100.00;95962.19;5080720;28;20024;-82
2023/09/19 05:11:30;;;;;;;2.90;1.00;;;;;;;24.43;100.00;95967.56;5081169;28;20067;-82
2023/09/19 05:14:03;;;;;;;2.05;1.00;;;;;;;25.11;100.00;95967.94;5065609;28;20102;-82
2023/09/19 05:16:32;;;;;;;3.85;1.15;;;;;;;24.83;100.00;95962.84;5053480;28;20058;-82
2023/09/19 05:18:59;;;;;;;3.25;1.38;;;;;;;24.63;100.00;95966.16;5068984;28;20111;-82
2023/09/19 05:21:30;;;;;;;3.15;1.27;;;;;;;24.77;100.00;95967.34;5070647;28;20103;-81
2023/09/19 05:24:03;;;;;;;3.88;1.65;;;;;;;24.49;100.00;95970.31;5091044;28;20028;-81
2023/09/19 05:26:28;;;;;;;3.70;1.60;;;;;;;24.68;100.00;95972.41;5065036;28;20079;-81
2023/09/19 05:29:02;;;;;;;3.70;1.30;;;;;;;25.13;100.00;95970.38;5054117;28;20534;-82
2023/09/19 05:31:36;;;;;;;3.95;1.17;;;;;;;24.95;100.00;95974.25;5050769;28;20020;-82
2023/09/19 05:34:06;;;;;;;3.15;1.27;;;;;;;25.28;100.00;95977.75;5051933;28;20121;-81
2023/09/19 05:36:41;;;;;;;3.30;1.23;;;;;;;25.25;100.00;95978.25;5073079;28;20040;-82
2023/09/19 05:39:23;;;;;;;3.33;1.10;;;;;;;24.90;100.00;95976.88;5054668;28;20403;-82
2023/09/19 05:42:04;;;;;;;4.68;1.13;;;;;;;25.28;100.00;95980.44;5060257;28;20040;-82
2023/09/19 05:44:33;;;;;;;4.22;1.23;;;;;;;24.73;100.00;95984.28;5044306;28;20690;-82
2023/09/19 05:46:59;;;;;;;5.15;1.45;;;;;;;24.92;100.00;95991.72;5049028;28;20550;-81
2023/09/19 05:49:33;;;;;;;1.60;1.00;;;;;;;24.72;100.00;95993.41;5050353;28;20045;-82
2023/09/19 05:52:29;;;;;;;3.67;1.20;;;;;;;25.03;100.00;95991.78;5079026;28;20449;-82
2023/09/19 05:55:05;;;;;;;3.63;1.20;;;;;;;24.75;100.00;96006.31;5061219;28;20196;-82
2023/09/19 05:57:39;;;;;;;3.42;1.70;;;;;;;25.72;100.00;96001.72;5048745;28;20021;-82
2023/09/19 06:00:17;;;;;;;2.65;1.23;;;;;;;25.43;100.00;95996.69;5065436;28;20036;-82
2023/09/19 06:02:53;;;;;;;4.93;1.52;;;;;;;25.66;100.00;96008.16;5080855;28;20390;-82
2023/09/19 06:05:26;;;;;;;6.45;1.45;;;;;;;25.29;100.00;96009.00;5078928;28;20536;-82
2023/09/19 06:07:52;;;;;;;;;;;;;;;25.87;100.00;96012.63;5063524;28;20105;-82
2023/09/19 06:10:27;;;;;;;3.80;0.90;;;;;;;25.30;100.00;96016.78;5060610;28;19913;-83
2023/09/19 06:12:59;;;;;;;4.45;1.23;;;;;;;25.32;100.00;96016.56;5079702;28;20430;-83
2023/09/19 06:15:40;;;;;;;4.45;1.30;;;;;;;25.24;100.00;96025.09;5061505;28;20023;-83
2023/09/19 06:18:13;;;;;;;4.43;1.40;;;;;;;25.06;100.00;96029.75;5066627;28;20445;-82
2023/09/19 06:20:44;;;;;;;2.45;1.48;;;;;;;24.63;100.00;96033.38;5045792;28;20886;-83
2023/09/19 06:23:13;;;;;;;2.90;1.35;;;;;;;25.07;100.00;96030.56;5067911;28;20399;-82
2023/09/19 06:25:43;;;;;;;3.25;1.38;;;;;;;25.43;100.00;96029.00;5067138;28;20094;-83
2023/09/19 06:28:12;;;;;;;13.63;1.25;;;;;;;24.96;100.00;96043.13;5072843;28;21002;-83
2023/09/19 06:30:42;;;;;;;2.47;1.40;;;;;;;25.27;100.00;96041.53;5062230;28;21056;-82
2023/09/19 06:33:08;;;;;;;3.63;1.20;;;;;;;24.94;100.00;96046.03;5054169;28;20444;-84
2023/09/19 06:36:00;;;;;;;3.13;1.20;;;;;;;25.09;100.00;96044.59;5068272;28;20021;-83
2023/09/19 06:38:34;;;;;;;3.90;1.38;;;;;;;24.37;100.00;96048.38;5054510;28;20124;-82
2023/09/19 06:41:01;;;;;;;2.60;1.60;;;;;;;24.61;100.00;96046.25;5057609;28;20025;-84
2023/09/19 06:43:30;;;;;;;3.50;1.67;;;;;;;24.57;100.00;96043.25;5081163;28;20449;-82
2023/09/19 06:45:59;;;;;;;2.63;1.40;;;;;;;24.88;100.00;96054.31;5070055;28;20093;-83
2023/09/19 06:48:27;;;;;;;3.67;1.50;;;;;;;25.47;100.00;96065.09;5072565;28;20032;-82
2023/09/19 06:51:05;;;;;;;5.72;1.60;;;;;;;25.07;100.00;96068.22;5041362;28;20040;-82
2023/09/19 06:53:36;;;;;;;3.67;1.60;;;;;;;24.30;100.00;96071.94;5053306;28;20070;-82
2023/09/19 06:56:10;;;;;;;2.55;1.08;;;;;;;23.83;100.00;96092.00;5071641;28;20032;-81
2023/09/19 06:58:39;;;;;;;2.60;1.10;;;;;;;22.34;100.00;96087.75;5045495;28;20111;-81
2023/09/19 07:01:05;;;;;;;4.25;1.40;;;;;;;22.77;100.00;96089.94;5048963;28;20637;-81
2023/09/19 07:03:33;;;;;;;2.33;1.10;;;;;;;23.03;100.00;96087.72;5060068;28;20032;-82
2023/09/19 07:06:04;;;;;;;3.45;1.25;;;;;;;22.75;100.00;96092.03;5042344;28;20108;-82
2023/09/19 07:08:35;;;;;;;3.17;1.35;;;;;;;23.21;100.00;96090.19;5064695;28;20525;-82
2023/09/19 07:11:06;;;;;;;2.47;1.23;;;;;;;24.20;100.00;96094.94;5063004;28;20071;-82
2023/09/19 07:13:32;;;;;;;3.13;1.27;;;;;;;24.04;100.00;96098.47;5077342;28;20024;-82
2023/09/19 07:16:04;;;;;;;2.47;1.30;;;;;;;23.99;100.00;96101.91;5075337;28;20502;-82
2023/09/19 07:18:44;;;;;;;6.18;2.13;;;;;;;23.84;100.00;96109.72;5051186;28;20132;-82
2023/09/19 07:21:15;;;;;;;3.38;1.40;;;;;;;24.62;100.00;96110.53;5054585;28;20040;-82
2023/09/19 07:23:49;;;;;;;11.95;2.47;;;;;;;24.32;100.00;96113.63;5079390;28;20024;-82
2023/09/19 07:26:28;;;;;;;5.35;2.40;;;;;;;24.09;100.00;96120.03;5056413;28;20039;-82
2023/09/19 07:28:59;;;;;;;4.22;2.03;;;;;;;23.92;100.00;96117.38;5064637;28;20028;-82
2023/09/19 07:31:27;;;;;;;3.05;1.10;;;;;;;24.30;100.00;96121.13;5060589;28;20047;-82
2023/09/19 07:33:55;;;;;;;3.92;1.15;;;;;;;24.25;100.00;96122.94;5055172;28;20036;-83
2023/09/19 07:36:21;;;;;;;3.55;1.55;;;;;;;24.07;100.00;96130.22;5070280;28;20035;-82
2023/09/19 07:39:06;;;;;;;;;;;;;;;24.89;100.00;96120.53;5078103;28;20040;-82
2023/09/19 07:41:41;;;;;;;2.38;1.20;;;;;;;23.62;100.00;96125.75;5074184;28;19912;-82
2023/09/19 07:44:10;;;;;;;5.07;1.70;;;;;;;23.77;100.00;96122.50;5052376;28;20116;-82
2023/09/19 07:46:36;;;;;;;5.90;1.65;;;;;;;24.79;100.00;96125.78;5075832;28;20996;-82
2023/09/19 07:49:02;;;;;;;3.53;1.77;;;;;;;25.13;100.00;96123.75;5052362;28;20123;-82
2023/09/19 07:51:29;;;;;;;4.05;1.60;;;;;;;24.89;100.00;96123.22;5072771;28;20024;-81
2023/09/19 07:53:54;;;;;;;5.40;1.63;;;;;;;24.97;100.00;96120.06;5069417;28;20038;-82
2023/09/19 07:56:27;;;;;;;4.05;1.58;;;;;;;25.24;100.00;96127.34;5078121;28;20127;-81
2023/09/19 07:58:59;;;;;;;4.47;2.35;;;;;;;25.43;100.00;96117.03;5061836;28;20497;-82
2023/09/19 08:01:44;;;;;;;4.55;1.60;;;;;;;25.12;100.00;96125.66;5050849;28;20320;-82
2023/09/19 08:04:19;;;;;;;4.95;1.60;;;;;;;25.31;100.00;96130.66;5066254;28;20041;-81
2023/09/19 08:06:44;;;;;;;5.70;2.15;;;;;;;25.74;100.00;96134.25;5048447;28;20238;-81
2023/09/19 08:09:48;;;;;;;4.50;1.60;;;;;;;25.01;100.00;96133.81;5059762;28;20040;-81
2023/09/19 08:12:17;;;;;;;5.35;1.73;;;;;;;26.19;100.00;96138.34;5068815;28;20016;-81
2023/09/19 08:14:48;;;;;;;6.13;2.15;;;;;;;27.56;100.00;96142.63;5070336;28;20028;-82
2023/09/19 08:17:18;;;;;;;3.33;1.75;;;;;;;28.15;100.00;96126.69;5068597;28;20032;-81
2023/09/19 08:20:05;;;;;;;6.70;1.55;;;;;;;26.83;100.00;96143.56;5068217;28;20020;-82
2023/09/19 08:22:32;;;;;;;4.38;1.77;;;;;;;27.83;100.00;96145.91;5051528;28;20029;-81
2023/09/19 08:24:58;;;;;;;6.82;1.83;;;;;;;26.62;100.00;96163.41;5058485;28;20045;-82
2023/09/19 08:27:26;;;;;;;4.80;2.22;;;;;;;27.34;99.24;96149.09;5056046;28;20086;-81
2023/09/19 08:29:53;;;;;;;3.50;1.50;;;;;;;26.78;100.00;96155.13;5048006;28;20028;-82
2023/09/19 08:32:29;;;;;;;5.80;1.52;;;;;;;27.04;100.00;96166.81;5068894;28;20544;-82
2023/09/19 08:35:00;;;;;;;3.50;1.55;;;;;;;26.87;100.00;96163.53;5067707;28;20024;-81
2023/09/19 08:37:32;;;;;;;4.82;1.83;;;;;;;27.53;97.67;96164.78;5054412;28;20036;-82
2023/09/19 08:40:22;;;;;;;6.10;1.67;;;;;;;27.70;100.00;96162.66;5055885;28;20070;-81
2023/09/19 08:43:11;;;;;;;3.30;1.63;;;;;;;27.98;93.35;96163.22;5049618;28;20032;-82
2023/09/19 08:45:45;;;;;;;5.35;1.98;;;;;;;27.85;95.49;96159.16;5087521;28;20020;-82
2023/09/19 08:48:28;;;;;;;4.10;1.83;;;;;;;27.87;94.77;96162.41;5075734;28;20059;-82
2023/09/19 08:51:17;;;;;;;6.95;2.20;;;;;;;28.00;88.18;96171.84;5068904;28;20028;-82
2023/09/19 08:54:09;;;;;;;4.13;1.30;;;;;;;26.61;99.51;96178.78;5045828;28;20028;-82
2023/09/19 08:56:39;;;;;;;4.90;1.50;;;;;;;26.69;96.19;96174.78;5051990;28;20375;-82
2023/09/19 08:59:12;;;;;;;4.03;1.35;;;;;;;27.46;91.16;96162.34;5049224;28;20037;-82
2023/09/19 09:01:44;;;;;;;5.35;1.60;;;;;;;27.76;87.62;96171.56;5062893;28;20024;-81
2023/09/19 09:04:12;;;;;;;5.63;1.65;;;;;;;27.01;92.39;96161.97;5063555;28;20123;-81
2023/09/19 09:06:48;;;;;;;3.72;1.40;;;;;;;28.01;88.23;96168.09;5056509;28;20051;-81
2023/09/19 09:09:35;;;;;;;3.80;1.55;;;;;;;28.65;83.69;96167.44;5053584;28;20028;-81
2023/09/19 09:12:08;;;;;;;4.78;1.50;;;;;;;27.70;89.44;96168.88;5047922;28;20036;-82
2023/09/19 09:14:37;;;;;;;2.83;1.38;;;;;;;26.62;92.74;96175.00;5053627;28;20039;-81
2023/09/19 09:17:03;;;;;;;3.47;1.20;;;;;;;26.29;96.20;96185.06;5069039;28;20072;-81
2023/09/19 09:19:31;;;;;;;4.22;1.15;;;;;;;26.90;93.16;96183.78;5078820;28;20024;-82
2023/09/19 09:22:13;;;;;;;3.95;1.55;;;;;;;26.25;98.45;96191.22;5066887;28;20067;-82
2023/09/19 09:24:58;;;;;;;3.03;1.30;;;;;;;27.15;89.29;96189.28;5078801;28;20042;-81
2023/09/19 09:27:34;;;;;;;2.78;1.30;;;;;;;26.93;94.48;96192.16;5049478;28;20111;-82
2023/09/19 09:29:59;;;;;;;;;;;;;;;26.89;91.67;96191.03;5061380;28;20030;-80
2023/09/19 09:32:39;;;;;;;4.13;1.25;;;;;;;26.97;92.85;96189.75;5053501;28;19912;-80
2023/09/19 09:35:21;;;;;;;4.18;1.52;;;;;;;26.51;96.95;96197.63;5049582;28;20127;-81
2023/09/19 09:38:08;;;;;;;4.60;1.50;;;;;;;26.71;96.25;96200.44;5052539;28;20035;-81
2023/09/19 09:43:46;;;;;;;3.80;1.50;;;;;;;26.39;95.33;96199.66;5059962;28;20036;-81
2023/09/19 09:49:44;;;;;;;3.05;1.42;;;;;;;26.95;98.35;96199.97;5055632;28;20074;-80
2023/09/19 09:52:18;;;;;;;7.35;2.30;;;;;;;26.68;91.09;96190.16;5052100;28;20039;-81
2023/09/19 09:55:05;;;;;;;3.03;1.55;;;;;;;27.68;87.28;96175.63;5070952;28;20032;-81
2023/09/19 09:57:40;;;;;;;3.85;1.50;;;;;;;28.05;87.57;96180.78;5054753;28;20019;-81
2023/09/19 10:02:41;;;;;;;3.35;1.13;;;;;;;27.89;81.98;96181.84;5067394;28;20025;-79
2023/09/19 10:05:40;;;;;;;3.13;1.52;;;;;;;27.88;88.06;96188.34;5055419;28;20040;-79
2023/09/19 10:08:19;;;;;;;5.05;1.50;;;;;;;29.25;75.88;96181.81;5073428;28;20028;-79
2023/09/19 10:10:53;;;;;;;4.35;1.10;;;;;;;29.17;75.27;96184.28;5070026;28;20064;-79
2023/09/19 10:13:36;;;;;;;4.13;1.50;;;;;;;27.54;81.74;96196.13;5072213;28;20063;-79
2023/09/19 10:16:10;;;;;;;3.10;1.23;;;;;;;28.05;77.09;96182.66;5070352;28;20023;-79
2023/09/19 10:18:41;;;;;;;4.22;1.48;;;;;;;28.74;75.54;96186.59;5055350;28;20063;-79
2023/09/19 10:21:13;;;;;;;3.92;1.33;;;;;;;29.43;71.19;96179.53;5052031;28;20071;-79
2023/09/19 10:23:48;;;;;;;3.67;1.50;;;;;;;28.74;73.99;96186.59;5068410;28;20161;-80
2023/09/19 10:26:17;;;;;;;4.97;1.80;;;;;;;28.76;76.22;96185.25;5073351;28;20036;-79
2023/09/19 10:28:48;;;;;;;3.72;1.20;;;;;;;29.93;69.28;96180.28;5065388;28;20036;-80
2023/09/19 10:31:28;;;;;;;2.50;1.20;;;;;;;30.31;62.01;96175.88;5052151;28;20020;-79
2023/09/19 10:34:23;;;;;;;3.92;1.50;;;;;;;28.57;67.98;96182.34;5071314;28;20012;-80
2023/09/19 10:37:12;;;;;;;3.85;1.35;;;;;;;28.64;71.42;96171.22;5039998;28;20040;-79
2023/09/19 10:39:49;;;;;;;3.55;1.42;;;;;;;28.83;69.94;96177.63;5068292;28;20129;-78
2023/09/19 10:42:24;;;;;;;3.90;1.45;;;;;;;27.96;72.21;96171.59;5051308;28;20044;-77
2023/09/19 10:45:00;;;;;;;4.25;1.13;;;;;;;28.99;68.77;96180.28;5056537;28;20071;-78
2023/09/19 10:47:26;;;;;;;5.93;1.73;;;;;;;28.42;73.89;96180.47;5042516;28;20227;-78
2023/09/19 10:49:57;;;;;;;2.80;1.10;;;;;;;29.64;68.61;96178.31;5065244;28;20085;-78
2023/09/19 10:52:29;;;;;;;5.10;2.72;;;;;;;29.19;66.57;96180.22;5061950;28;20022;-78
2023/09/19 10:54:59;;;;;;;4.25;1.60;;;;;;;29.16;67.07;96177.25;5049121;28;20016;-78
2023/09/19 10:57:31;;;;;;;3.75;1.13;;;;;;;29.52;64.34;96177.84;5049365;28;20059;-77
2023/09/19 11:00:27;;;;;;;3.17;1.20;;;;;;;30.20;62.82;96175.19;5062926;28;20044;-78
2023/09/19 11:03:18;;;;;;;2.20;1.17;;;;;;;29.79;60.22;96172.81;5043712;28;20028;-78
2023/09/19 11:06:16;;;;;;;2.58;1.33;;;;;;;30.66;56.65;96165.75;5050843;28;20090;-78
2023/09/19 11:11:55;;;;;;;4.38;1.65;;;;;;;29.81;55.25;96165.19;5059008;28;20138;-78
2023/09/19 11:14:29;;;;;;;2.20;1.00;;;;;;;30.72;53.83;96159.97;5085592;28;20500;-78
2023/09/19 11:17:24;;;;;;;4.15;1.33;;;;;;;30.36;55.01;96159.56;5067262;28;20028;-77
2023/09/19 11:23:15;;;;;;;2.90;1.30;;;;;;;30.63;50.18;96153.56;5070534;28;20020;-77
2023/09/19 11:25:47;;;;;;;2.55;1.35;;;;;;;30.17;51.33;96154.03;5052277;28;20023;-78
2023/09/19 11:28:41;;;;;;;3.13;1.05;;;;;;;30.95;47.83;96152.13;5075518;28;20033;-77
2023/09/19 11:31:44;;;;;;;2.42;1.20;;;;;;;31.05;48.51;96145.75;5074833;28;20031;-78
2023/09/19 11:34:50;;;;;;;4.88;1.38;;;;;;;30.43;48.43;96148.38;5062687;28;20080;-77
2023/09/19 11:37:28;;;;;;;2.75;1.30;;;;;;;30.49;46.01;96142.59;5080439;28;20032;-78
2023/09/19 11:40:15;;;;;;;3.38;1.50;;;;;;;30.50;45.47;96137.97;5051633;28;20029;-78
2023/09/19 11:42:53;;;;;;;4.50;1.23;;;;;;;31.55;44.47;96138.78;5063948;28;20027;-77
2023/09/19 11:45:57;;;;;;;3.13;1.10;;;;;;;30.74;44.63;96141.47;5079724;28;20486;-78
2023/09/19 11:48:47;;;;;;;2.05;1.42;;;;;;;32.75;42.24;96138.06;5064380;28;20075;-78
2023/09/19 11:51:54;;;;;;;1.98;1.10;;;;;;;31.58;41.67;96148.28;5065608;28;20020;-78
2023/09/19 11:54:32;;;;;;;3.22;1.25;;;;;;;31.61;41.72;96144.97;5066961;28;20035;-78
2023/09/19 11:57:07;;;;;;;2.95;1.25;;;;;;;32.17;40.98;96141.34;5061185;28;20098;-77
2023/09/19 11:59:33;;;;;;;4.10;1.52;;;;;;;31.65;40.40;96130.47;5071914;28;20024;-78
2023/09/19 12:02:18;;;;;;;1.52;0.93;;;;;;;32.45;40.14;96133.22;5070028;28;20563;-77
2023/09/19 12:04:56;;;;;;;3.15;1.13;;;;;;;32.74;40.43;96128.28;5067194;28;20104;-77
2023/09/19 12:07:47;;;;;;;2.85;1.08;;;;;;;32.80;40.05;96126.28;5070911;28;20020;-78
2023/09/19 12:10:21;;;;;;;3.58;1.17;;;;;;;32.04;39.88;96118.44;5042599;28;20051;-77
2023/09/19 12:12:53;;;;;;;2.63;1.17;;;;;;;32.70;38.61;96116.41;5056462;28;20058;-78
2023/09/19 12:15:34;;;;;;;2.77;1.17;;;;;;;33.02;38.12;96112.75;5058299;28;20036;-78
2023/09/19 12:18:05;;;;;;;3.05;1.63;;;;;;;32.12;38.74;96104.13;5058705;28;20028;-78
2023/09/19 12:20:58;;;;;;;3.35;1.20;;;;;;;33.02;37.36;96096.38;5058671;28;20082;-77
2023/09/19 12:23:30;;;;;;;2.15;1.10;;;;;;;32.43;37.97;96105.50;5044824;28;20020;-78
2023/09/19 12:25:59;;;;;;;2.45;0.95;;;;;;;32.07;39.61;96101.53;5065060;28;20016;-77